sensor_id;sensor_type;location;lat;lon;timestamp;P1;durP1;ratioP1;P2;durP2;ratioP2
5042;SDS011;2540;50.928;6.856;2024-02-26T00:00:35;0.93;;;0.80;;
5042;SDS011;2540;50.928;6.856;2024-02-26T00:03:01;1.40;;;1.20;;
5042;SDS011;2540;50.928;6.856;2024-02-26T00:05:26;1.53;;;1.10;;
5042;SDS011;2540;50.928;6.856;2024-02-26T00:07:52;1.70;;;0.83;;
5042;SDS011;2540;50.928;6.856;2024-02-26T00:10:17;1.10;;;1.00;;
5042;SDS011;2540;50.928;6.856;2024-02-26T00:12:48;1.83;;;0.90;;
5042;SDS011;2540;50.928;6.856;2024-02-26T00:15:14;1.50;;;1.13;;
5042;SDS011;2540;50.928;6.856;2024-02-26T00:17:39;1.43;;;0.87;;
5042;SDS011;2540;50.928;6.856;2024-02-26T00:20:05;1.40;;;0.93;;
5042;SDS011;2540;50.928;6.856;2024-02-26T00:22:33;3.50;;;1.20;;
5042;SDS011;2540;50.928;6.856;2024-02-26T00:24:59;0.87;;;0.80;;
5042;SDS011;2540;50.928;6.856;2024-02-26T00:27:24;1.67;;;1.10;;
5042;SDS011;2540;50.928;6.856;2024-02-26T00:29:49;0.83;;;0.83;;
5042;SDS011;2540;50.928;6.856;2024-02-26T00:32:15;0.90;;;0.90;;
5042;SDS011;2540;50.928;6.856;2024-02-26T00:34:40;1.63;;;1.30;;
5042;SDS011;2540;50.928;6.856;2024-02-26T00:37:05;4.60;;;0.80;;
5042;SDS011;2540;50.928;6.856;2024-02-26T00:39:31;1.00;;;0.90;;
5042;SDS011;2540;50.928;6.856;2024-02-26T00:41:56;1.00;;;0.80;;
5042;SDS011;2540;50.928;6.856;2024-02-26T00:44:22;1.07;;;0.97;;
5042;SDS011;2540;50.928;6.856;2024-02-26T00:46:47;0.93;;;0.73;;
5042;SDS011;2540;50.928;6.856;2024-02-26T00:49:12;1.00;;;0.87;;
5042;SDS011;2540;50.928;6.856;2024-02-26T00:51:38;0.80;;;0.70;;
5042;SDS011;2540;50.928;6.856;2024-02-26T00:54:06;3.70;;;1.00;;
5042;SDS011;2540;50.928;6.856;2024-02-26T00:56:31;0.70;;;0.63;;
5042;SDS011;2540;50.928;6.856;2024-02-26T00:58:57;3.80;;;0.80;;
5042;SDS011;2540;50.928;6.856;2024-02-26T01:01:23;1.47;;;0.77;;
5042;SDS011;2540;50.928;6.856;2024-02-26T01:03:48;0.67;;;0.67;;
5042;SDS011;2540;50.928;6.856;2024-02-26T01:06:24;0.60;;;0.60;;
5042;SDS011;2540;50.928;6.856;2024-02-26T01:08:49;2.23;;;1.00;;
5042;SDS011;2540;50.928;6.856;2024-02-26T01:11:15;2.30;;;0.70;;
5042;SDS011;2540;50.928;6.856;2024-02-26T01:13:40;4.57;;;1.10;;
5042;SDS011;2540;50.928;6.856;2024-02-26T01:16:06;0.60;;;0.60;;
5042;SDS011;2540;50.928;6.856;2024-02-26T01:18:31;0.93;;;0.70;;
5042;SDS011;2540;50.928;6.856;2024-02-26T01:20:56;1.23;;;0.80;;
5042;SDS011;2540;50.928;6.856;2024-02-26T01:23:22;0.70;;;0.70;;
5042;SDS011;2540;50.928;6.856;2024-02-26T01:25:47;2.70;;;1.07;;
5042;SDS011;2540;50.928;6.856;2024-02-26T01:28:13;1.37;;;0.70;;
5042;SDS011;2540;50.928;6.856;2024-02-26T01:33:44;1.33;;;0.80;;
5042;SDS011;2540;50.928;6.856;2024-02-26T01:36:09;1.53;;;0.90;;
5042;SDS011;2540;50.928;6.856;2024-02-26T01:38:34;3.03;;;1.10;;
5042;SDS011;2540;50.928;6.856;2024-02-26T01:41:00;1.90;;;0.90;;
5042;SDS011;2540;50.928;6.856;2024-02-26T01:43:25;0.60;;;0.60;;
5042;SDS011;2540;50.928;6.856;2024-02-26T01:45:50;1.67;;;0.93;;
5042;SDS011;2540;50.928;6.856;2024-02-26T01:48:34;0.60;;;0.60;;
5042;SDS011;2540;50.928;6.856;2024-02-26T01:51:09;0.97;;;0.60;;
5042;SDS011;2540;50.928;6.856;2024-02-26T01:53:35;0.80;;;0.60;;
5042;SDS011;2540;50.928;6.856;2024-02-26T01:56:00;3.17;;;0.80;;
5042;SDS011;2540;50.928;6.856;2024-02-26T01:58:26;0.90;;;0.73;;
5042;SDS011;2540;50.928;6.856;2024-02-26T02:00:51;0.60;;;0.60;;
5042;SDS011;2540;50.928;6.856;2024-02-26T02:03:16;0.67;;;0.67;;
5042;SDS011;2540;50.928;6.856;2024-02-26T02:05:42;1.07;;;0.83;;
5042;SDS011;2540;50.928;6.856;2024-02-26T02:08:08;2.63;;;0.80;;
5042;SDS011;2540;50.928;6.856;2024-02-26T02:10:35;1.27;;;0.90;;
5042;SDS011;2540;50.928;6.856;2024-02-26T02:13:00;2.63;;;0.80;;
5042;SDS011;2540;50.928;6.856;2024-02-26T02:15:26;0.60;;;0.60;;
5042;SDS011;2540;50.928;6.856;2024-02-26T02:17:51;0.93;;;0.70;;
5042;SDS011;2540;50.928;6.856;2024-02-26T02:20:17;1.77;;;0.67;;
5042;SDS011;2540;50.928;6.856;2024-02-26T02:22:44;1.00;;;0.70;;
5042;SDS011;2540;50.928;6.856;2024-02-26T02:25:09;1.97;;;0.80;;
5042;SDS011;2540;50.928;6.856;2024-02-26T02:27:35;1.57;;;0.70;;
5042;SDS011;2540;50.928;6.856;2024-02-26T02:30:00;0.80;;;0.80;;
5042;SDS011;2540;50.928;6.856;2024-02-26T02:32:26;2.00;;;0.63;;
5042;SDS011;2540;50.928;6.856;2024-02-26T02:34:52;0.60;;;0.60;;
5042;SDS011;2540;50.928;6.856;2024-02-26T02:37:18;0.70;;;0.70;;
5042;SDS011;2540;50.928;6.856;2024-02-26T02:39:43;0.80;;;0.70;;
5042;SDS011;2540;50.928;6.856;2024-02-26T02:42:09;1.13;;;0.60;;
5042;SDS011;2540;50.928;6.856;2024-02-26T02:44:47;1.20;;;0.70;;
5042;SDS011;2540;50.928;6.856;2024-02-26T02:47:13;0.80;;;0.80;;
5042;SDS011;2540;50.928;6.856;2024-02-26T02:49:38;1.80;;;0.93;;
5042;SDS011;2540;50.928;6.856;2024-02-26T02:52:04;0.70;;;0.70;;
5042;SDS011;2540;50.928;6.856;2024-02-26T02:54:29;1.03;;;0.73;;
5042;SDS011;2540;50.928;6.856;2024-02-26T02:56:54;1.00;;;0.83;;
5042;SDS011;2540;50.928;6.856;2024-02-26T02:59:20;1.17;;;0.80;;
5042;SDS011;2540;50.928;6.856;2024-02-26T03:01:45;1.73;;;0.60;;
5042;SDS011;2540;50.928;6.856;2024-02-26T03:04:10;1.60;;;1.00;;
5042;SDS011;2540;50.928;6.856;2024-02-26T03:06:36;1.70;;;0.60;;
5042;SDS011;2540;50.928;6.856;2024-02-26T03:09:01;0.67;;;0.60;;
5042;SDS011;2540;50.928;6.856;2024-02-26T03:11:27;1.10;;;1.00;;
5042;SDS011;2540;50.928;6.856;2024-02-26T03:13:52;1.43;;;1.00;;
5042;SDS011;2540;50.928;6.856;2024-02-26T03:16:17;0.60;;;0.60;;
5042;SDS011;2540;50.928;6.856;2024-02-26T03:18:43;1.00;;;0.70;;
5042;SDS011;2540;50.928;6.856;2024-02-26T03:21:08;1.03;;;0.80;;
5042;SDS011;2540;50.928;6.856;2024-02-26T03:23:34;1.60;;;0.80;;
5042;SDS011;2540;50.928;6.856;2024-02-26T03:26:04;4.47;;;1.00;;
5042;SDS011;2540;50.928;6.856;2024-02-26T03:28:30;1.20;;;0.70;;
5042;SDS011;2540;50.928;6.856;2024-02-26T03:30:58;1.60;;;0.77;;
5042;SDS011;2540;50.928;6.856;2024-02-26T03:33:23;1.27;;;0.60;;
5042;SDS011;2540;50.928;6.856;2024-02-26T03:35:48;0.70;;;0.70;;
5042;SDS011;2540;50.928;6.856;2024-02-26T03:38:14;0.97;;;0.73;;
5042;SDS011;2540;50.928;6.856;2024-02-26T03:40:39;1.67;;;0.80;;
5042;SDS011;2540;50.928;6.856;2024-02-26T03:43:04;1.27;;;0.83;;
5042;SDS011;2540;50.928;6.856;2024-02-26T03:45:32;1.10;;;0.70;;
5042;SDS011;2540;50.928;6.856;2024-02-26T03:47:57;0.60;;;0.60;;
5042;SDS011;2540;50.928;6.856;2024-02-26T03:50:22;1.27;;;1.03;;
5042;SDS011;2540;50.928;6.856;2024-02-26T03:52:48;0.80;;;0.70;;
5042;SDS011;2540;50.928;6.856;2024-02-26T03:55:13;4.00;;;0.97;;
5042;SDS011;2540;50.928;6.856;2024-02-26T03:57:38;0.70;;;0.70;;
5042;SDS011;2540;50.928;6.856;2024-02-26T04:00:04;1.00;;;1.00;;
5042;SDS011;2540;50.928;6.856;2024-02-26T04:02:29;1.00;;;0.90;;
5042;SDS011;2540;50.928;6.856;2024-02-26T04:04:55;1.47;;;0.90;;
5042;SDS011;2540;50.928;6.856;2024-02-26T04:07:20;1.30;;;0.83;;
5042;SDS011;2540;50.928;6.856;2024-02-26T04:09:45;3.27;;;0.90;;
5042;SDS011;2540;50.928;6.856;2024-02-26T04:12:11;2.33;;;1.03;;
5042;SDS011;2540;50.928;6.856;2024-02-26T04:14:36;2.10;;;0.90;;
5042;SDS011;2540;50.928;6.856;2024-02-26T04:17:02;0.83;;;0.77;;
5042;SDS011;2540;50.928;6.856;2024-02-26T04:19:27;1.67;;;1.00;;
5042;SDS011;2540;50.928;6.856;2024-02-26T04:21:53;1.27;;;0.80;;
5042;SDS011;2540;50.928;6.856;2024-02-26T04:24:19;1.53;;;0.83;;
5042;SDS011;2540;50.928;6.856;2024-02-26T04:26:45;2.40;;;1.00;;
5042;SDS011;2540;50.928;6.856;2024-02-26T04:29:10;2.47;;;0.90;;
5042;SDS011;2540;50.928;6.856;2024-02-26T04:31:36;1.63;;;0.70;;
5042;SDS011;2540;50.928;6.856;2024-02-26T04:34:02;4.13;;;1.00;;
5042;SDS011;2540;50.928;6.856;2024-02-26T04:36:28;0.60;;;0.60;;
5042;SDS011;2540;50.928;6.856;2024-02-26T04:38:53;0.90;;;0.87;;
5042;SDS011;2540;50.928;6.856;2024-02-26T04:41:20;1.00;;;0.60;;
5042;SDS011;2540;50.928;6.856;2024-02-26T04:43:46;1.07;;;0.90;;
5042;SDS011;2540;50.928;6.856;2024-02-26T04:46:11;1.23;;;1.13;;
5042;SDS011;2540;50.928;6.856;2024-02-26T04:48:36;1.00;;;0.80;;
5042;SDS011;2540;50.928;6.856;2024-02-26T04:51:03;1.80;;;1.00;;
5042;SDS011;2540;50.928;6.856;2024-02-26T04:53:29;1.40;;;0.70;;
5042;SDS011;2540;50.928;6.856;2024-02-26T04:55:54;1.10;;;0.90;;
5042;SDS011;2540;50.928;6.856;2024-02-26T04:58:19;0.70;;;0.70;;
5042;SDS011;2540;50.928;6.856;2024-02-26T05:00:45;1.13;;;0.90;;
5042;SDS011;2540;50.928;6.856;2024-02-26T05:03:10;0.90;;;0.90;;
5042;SDS011;2540;50.928;6.856;2024-02-26T05:05:40;3.43;;;0.93;;
5042;SDS011;2540;50.928;6.856;2024-02-26T05:08:06;1.40;;;1.00;;
5042;SDS011;2540;50.928;6.856;2024-02-26T05:10:32;1.00;;;0.90;;
5042;SDS011;2540;50.928;6.856;2024-02-26T05:12:58;1.60;;;1.50;;
5042;SDS011;2540;50.928;6.856;2024-02-26T05:15:23;1.33;;;1.10;;
5042;SDS011;2540;50.928;6.856;2024-02-26T05:17:48;2.57;;;1.50;;
5042;SDS011;2540;50.928;6.856;2024-02-26T05:20:14;2.27;;;1.00;;
5042;SDS011;2540;50.928;6.856;2024-02-26T05:22:39;1.00;;;1.00;;
5042;SDS011;2540;50.928;6.856;2024-02-26T05:25:04;3.13;;;1.40;;
5042;SDS011;2540;50.928;6.856;2024-02-26T05:27:30;2.33;;;1.13;;
5042;SDS011;2540;50.928;6.856;2024-02-26T05:29:55;1.50;;;1.30;;
5042;SDS011;2540;50.928;6.856;2024-02-26T05:32:21;1.17;;;1.07;;
5042;SDS011;2540;50.928;6.856;2024-02-26T05:34:46;2.03;;;1.33;;
5042;SDS011;2540;50.928;6.856;2024-02-26T05:37:12;1.30;;;0.90;;
5042;SDS011;2540;50.928;6.856;2024-02-26T05:39:37;1.53;;;1.43;;
5042;SDS011;2540;50.928;6.856;2024-02-26T05:42:02;1.30;;;1.20;;
5042;SDS011;2540;50.928;6.856;2024-02-26T05:44:28;2.37;;;1.07;;
5042;SDS011;2540;50.928;6.856;2024-02-26T05:46:53;1.20;;;0.90;;
5042;SDS011;2540;50.928;6.856;2024-02-26T05:49:19;4.97;;;1.40;;
5042;SDS011;2540;50.928;6.856;2024-02-26T05:51:44;0.93;;;0.80;;
5042;SDS011;2540;50.928;6.856;2024-02-26T05:54:09;1.10;;;0.93;;
5042;SDS011;2540;50.928;6.856;2024-02-26T05:56:35;1.00;;;1.00;;
5042;SDS011;2540;50.928;6.856;2024-02-26T05:59:00;1.80;;;1.50;;
5042;SDS011;2540;50.928;6.856;2024-02-26T06:01:26;3.83;;;1.60;;
5042;SDS011;2540;50.928;6.856;2024-02-26T06:03:51;2.93;;;1.27;;
5042;SDS011;2540;50.928;6.856;2024-02-26T06:06:17;1.40;;;1.30;;
5042;SDS011;2540;50.928;6.856;2024-02-26T06:08:42;2.07;;;1.30;;
5042;SDS011;2540;50.928;6.856;2024-02-26T06:11:08;1.93;;;1.50;;
5042;SDS011;2540;50.928;6.856;2024-02-26T06:13:33;2.30;;;1.17;;
5042;SDS011;2540;50.928;6.856;2024-02-26T06:15:59;8.00;;;1.20;;
5042;SDS011;2540;50.928;6.856;2024-02-26T06:18:24;1.80;;;1.20;;
5042;SDS011;2540;50.928;6.856;2024-02-26T06:20:50;1.63;;;1.20;;
5042;SDS011;2540;50.928;6.856;2024-02-26T06:23:15;5.10;;;1.40;;
5042;SDS011;2540;50.928;6.856;2024-02-26T06:25:41;1.30;;;1.13;;
5042;SDS011;2540;50.928;6.856;2024-02-26T06:28:07;1.87;;;1.10;;
5042;SDS011;2540;50.928;6.856;2024-02-26T06:30:33;1.17;;;1.10;;
5042;SDS011;2540;50.928;6.856;2024-02-26T06:32:58;1.17;;;1.00;;
5042;SDS011;2540;50.928;6.856;2024-02-26T06:35:23;2.23;;;1.20;;
5042;SDS011;2540;50.928;6.856;2024-02-26T06:37:49;1.13;;;1.13;;
5042;SDS011;2540;50.928;6.856;2024-02-26T06:40:17;1.30;;;1.20;;
5042;SDS011;2540;50.928;6.856;2024-02-26T06:42:42;3.33;;;1.30;;
5042;SDS011;2540;50.928;6.856;2024-02-26T06:45:08;2.23;;;1.30;;
5042;SDS011;2540;50.928;6.856;2024-02-26T06:47:34;2.13;;;1.57;;
5042;SDS011;2540;50.928;6.856;2024-02-26T06:49:59;3.33;;;1.67;;
5042;SDS011;2540;50.928;6.856;2024-02-26T06:52:25;2.37;;;1.30;;
5042;SDS011;2540;50.928;6.856;2024-02-26T06:54:51;4.83;;;1.60;;
5042;SDS011;2540;50.928;6.856;2024-02-26T06:57:17;1.87;;;1.40;;
5042;SDS011;2540;50.928;6.856;2024-02-26T06:59:44;2.97;;;1.73;;
5042;SDS011;2540;50.928;6.856;2024-02-26T07:02:12;6.77;;;1.60;;
5042;SDS011;2540;50.928;6.856;2024-02-26T07:04:37;2.10;;;1.40;;
5042;SDS011;2540;50.928;6.856;2024-02-26T07:07:02;1.80;;;1.10;;
5042;SDS011;2540;50.928;6.856;2024-02-26T07:09:28;1.80;;;1.33;;
5042;SDS011;2540;50.928;6.856;2024-02-26T07:11:53;1.77;;;1.67;;
5042;SDS011;2540;50.928;6.856;2024-02-26T07:14:19;4.17;;;1.30;;
5042;SDS011;2540;50.928;6.856;2024-02-26T07:16:44;3.60;;;1.70;;
5042;SDS011;2540;50.928;6.856;2024-02-26T07:19:09;5.03;;;1.57;;
5042;SDS011;2540;50.928;6.856;2024-02-26T07:21:34;10.07;;;3.07;;
5042;SDS011;2540;50.928;6.856;2024-02-26T07:24:00;4.73;;;1.90;;
5042;SDS011;2540;50.928;6.856;2024-02-26T07:26:25;4.03;;;1.70;;
5042;SDS011;2540;50.928;6.856;2024-02-26T07:28:51;2.40;;;1.53;;
5042;SDS011;2540;50.928;6.856;2024-02-26T07:31:19;5.90;;;3.23;;
5042;SDS011;2540;50.928;6.856;2024-02-26T07:33:45;14.67;;;7.97;;
5042;SDS011;2540;50.928;6.856;2024-02-26T07:36:10;7.47;;;3.27;;
5042;SDS011;2540;50.928;6.856;2024-02-26T07:38:36;6.97;;;2.53;;
5042;SDS011;2540;50.928;6.856;2024-02-26T07:41:02;3.47;;;2.50;;
5042;SDS011;2540;50.928;6.856;2024-02-26T07:43:28;4.63;;;1.80;;
5042;SDS011;2540;50.928;6.856;2024-02-26T07:45:53;2.90;;;2.13;;
5042;SDS011;2540;50.928;6.856;2024-02-26T07:48:18;2.83;;;2.43;;
5042;SDS011;2540;50.928;6.856;2024-02-26T07:50:44;2.13;;;1.60;;
5042;SDS011;2540;50.928;6.856;2024-02-26T07:53:09;2.03;;;1.50;;
5042;SDS011;2540;50.928;6.856;2024-02-26T07:55:34;2.40;;;1.33;;
5042;SDS011;2540;50.928;6.856;2024-02-26T07:58:03;1.80;;;1.40;;
5042;SDS011;2540;50.928;6.856;2024-02-26T08:00:38;1.97;;;1.60;;
5042;SDS011;2540;50.928;6.856;2024-02-26T08:03:04;5.27;;;2.30;;
5042;SDS011;2540;50.928;6.856;2024-02-26T08:05:29;5.20;;;2.70;;
5042;SDS011;2540;50.928;6.856;2024-02-26T08:07:54;7.13;;;1.70;;
5042;SDS011;2540;50.928;6.856;2024-02-26T08:10:21;2.10;;;1.63;;
5042;SDS011;2540;50.928;6.856;2024-02-26T08:12:47;3.73;;;1.80;;
5042;SDS011;2540;50.928;6.856;2024-02-26T08:15:12;4.30;;;1.93;;
5042;SDS011;2540;50.928;6.856;2024-02-26T08:17:37;7.17;;;1.63;;
5042;SDS011;2540;50.928;6.856;2024-02-26T08:20:03;2.20;;;1.40;;
5042;SDS011;2540;50.928;6.856;2024-02-26T08:22:29;1.73;;;1.50;;
5042;SDS011;2540;50.928;6.856;2024-02-26T08:24:58;2.87;;;1.67;;
5042;SDS011;2540;50.928;6.856;2024-02-26T08:27:24;1.50;;;1.40;;
5042;SDS011;2540;50.928;6.856;2024-02-26T08:29:49;3.80;;;1.87;;
5042;SDS011;2540;50.928;6.856;2024-02-26T08:32:14;7.60;;;2.57;;
5042;SDS011;2540;50.928;6.856;2024-02-26T08:34:40;3.00;;;1.73;;
5042;SDS011;2540;50.928;6.856;2024-02-26T08:37:05;1.80;;;1.27;;
5042;SDS011;2540;50.928;6.856;2024-02-26T08:39:31;2.67;;;2.17;;
5042;SDS011;2540;50.928;6.856;2024-02-26T08:41:56;5.50;;;2.13;;
5042;SDS011;2540;50.928;6.856;2024-02-26T08:44:21;9.13;;;1.90;;
5042;SDS011;2540;50.928;6.856;2024-02-26T08:46:47;2.43;;;2.00;;
5042;SDS011;2540;50.928;6.856;2024-02-26T08:49:12;3.30;;;2.20;;
5042;SDS011;2540;50.928;6.856;2024-02-26T08:51:41;3.43;;;1.80;;
5042;SDS011;2540;50.928;6.856;2024-02-26T08:54:07;1.40;;;1.30;;
5042;SDS011;2540;50.928;6.856;2024-02-26T08:56:33;3.10;;;1.80;;
5042;SDS011;2540;50.928;6.856;2024-02-26T08:58:59;2.60;;;1.63;;
5042;SDS011;2540;50.928;6.856;2024-02-26T09:01:28;1.47;;;1.37;;
5042;SDS011;2540;50.928;6.856;2024-02-26T09:03:54;4.40;;;1.57;;
5042;SDS011;2540;50.928;6.856;2024-02-26T09:06:19;5.73;;;1.80;;
5042;SDS011;2540;50.928;6.856;2024-02-26T09:08:44;3.67;;;1.90;;
5042;SDS011;2540;50.928;6.856;2024-02-26T09:11:10;4.03;;;1.60;;
5042;SDS011;2540;50.928;6.856;2024-02-26T09:13:35;3.10;;;2.07;;
5042;SDS011;2540;50.928;6.856;2024-02-26T09:16:00;2.80;;;1.90;;
5042;SDS011;2540;50.928;6.856;2024-02-26T09:18:26;5.90;;;1.90;;
5042;SDS011;2540;50.928;6.856;2024-02-26T09:20:53;3.87;;;1.70;;
5042;SDS011;2540;50.928;6.856;2024-02-26T09:23:19;4.90;;;2.03;;
5042;SDS011;2540;50.928;6.856;2024-02-26T09:25:44;3.80;;;1.50;;
5042;SDS011;2540;50.928;6.856;2024-02-26T09:28:09;3.07;;;2.03;;
5042;SDS011;2540;50.928;6.856;2024-02-26T09:30:35;1.70;;;1.60;;
5042;SDS011;2540;50.928;6.856;2024-02-26T09:33:00;1.70;;;1.53;;
5042;SDS011;2540;50.928;6.856;2024-02-26T09:35:25;4.00;;;1.83;;
5042;SDS011;2540;50.928;6.856;2024-02-26T09:37:51;9.90;;;1.77;;
5042;SDS011;2540;50.928;6.856;2024-02-26T09:40:17;2.60;;;2.07;;
5042;SDS011;2540;50.928;6.856;2024-02-26T09:42:44;3.23;;;1.90;;
5042;SDS011;2540;50.928;6.856;2024-02-26T09:45:11;5.77;;;3.40;;
5042;SDS011;2540;50.928;6.856;2024-02-26T09:47:42;3.17;;;2.00;;
5042;SDS011;2540;50.928;6.856;2024-02-26T09:50:08;2.03;;;1.73;;
5042;SDS011;2540;50.928;6.856;2024-02-26T09:52:34;1.40;;;1.30;;
5042;SDS011;2540;50.928;6.856;2024-02-26T09:55:03;3.97;;;1.83;;
5042;SDS011;2540;50.928;6.856;2024-02-26T09:57:29;2.57;;;1.77;;
5042;SDS011;2540;50.928;6.856;2024-02-26T09:59:54;2.50;;;2.10;;
5042;SDS011;2540;50.928;6.856;2024-02-26T10:02:26;1.83;;;1.70;;
5042;SDS011;2540;50.928;6.856;2024-02-26T10:04:53;2.80;;;2.00;;
5042;SDS011;2540;50.928;6.856;2024-02-26T10:07:21;3.27;;;2.27;;
5042;SDS011;2540;50.928;6.856;2024-02-26T10:09:46;3.80;;;2.13;;
5042;SDS011;2540;50.928;6.856;2024-02-26T10:12:12;3.37;;;2.50;;
5042;SDS011;2540;50.928;6.856;2024-02-26T10:14:38;6.03;;;2.03;;
5042;SDS011;2540;50.928;6.856;2024-02-26T10:17:03;2.80;;;2.20;;
5042;SDS011;2540;50.928;6.856;2024-02-26T10:19:33;3.80;;;2.23;;
5042;SDS011;2540;50.928;6.856;2024-02-26T10:21:59;2.50;;;2.03;;
5042;SDS011;2540;50.928;6.856;2024-02-26T10:24:26;3.47;;;1.90;;
5042;SDS011;2540;50.928;6.856;2024-02-26T10:26:52;2.70;;;1.77;;
5042;SDS011;2540;50.928;6.856;2024-02-26T10:29:27;3.50;;;1.90;;
5042;SDS011;2540;50.928;6.856;2024-02-26T10:32:18;3.90;;;1.80;;
5042;SDS011;2540;50.928;6.856;2024-02-26T10:34:43;5.63;;;2.00;;
5042;SDS011;2540;50.928;6.856;2024-02-26T10:37:09;14.33;;;4.10;;
5042;SDS011;2540;50.928;6.856;2024-02-26T10:39:36;3.47;;;2.50;;
5042;SDS011;2540;50.928;6.856;2024-02-26T10:42:01;2.10;;;1.70;;
5042;SDS011;2540;50.928;6.856;2024-02-26T10:44:31;6.90;;;3.47;;
5042;SDS011;2540;50.928;6.856;2024-02-26T10:46:57;6.50;;;3.20;;
5042;SDS011;2540;50.928;6.856;2024-02-26T10:49:22;3.47;;;2.37;;
5042;SDS011;2540;50.928;6.856;2024-02-26T10:51:55;3.60;;;2.10;;
5042;SDS011;2540;50.928;6.856;2024-02-26T10:54:22;3.20;;;2.00;;
5042;SDS011;2540;50.928;6.856;2024-02-26T10:56:49;4.47;;;2.43;;
5042;SDS011;2540;50.928;6.856;2024-02-26T10:59:15;3.93;;;1.90;;
5042;SDS011;2540;50.928;6.856;2024-02-26T11:01:45;2.67;;;2.27;;
5042;SDS011;2540;50.928;6.856;2024-02-26T11:04:12;5.37;;;3.13;;
5042;SDS011;2540;50.928;6.856;2024-02-26T11:06:38;3.03;;;2.00;;
5042;SDS011;2540;50.928;6.856;2024-02-26T11:09:03;3.60;;;2.10;;
5042;SDS011;2540;50.928;6.856;2024-02-26T11:11:30;6.77;;;3.60;;
5042;SDS011;2540;50.928;6.856;2024-02-26T11:13:57;10.83;;;7.40;;
5042;SDS011;2540;50.928;6.856;2024-02-26T11:16:23;6.03;;;3.87;;
5042;SDS011;2540;50.928;6.856;2024-02-26T11:18:48;12.77;;;4.87;;
5042;SDS011;2540;50.928;6.856;2024-02-26T11:21:17;3.87;;;2.50;;
5042;SDS011;2540;50.928;6.856;2024-02-26T11:23:53;3.30;;;2.73;;
5042;SDS011;2540;50.928;6.856;2024-02-26T11:26:19;3.47;;;2.67;;
5042;SDS011;2540;50.928;6.856;2024-02-26T11:28:45;3.83;;;2.20;;
5042;SDS011;2540;50.928;6.856;2024-02-26T11:31:10;1.97;;;1.77;;
5042;SDS011;2540;50.928;6.856;2024-02-26T11:33:37;3.80;;;2.60;;
5042;SDS011;2540;50.928;6.856;2024-02-26T11:36:07;4.10;;;2.70;;
5042;SDS011;2540;50.928;6.856;2024-02-26T11:38:36;3.23;;;1.90;;
5042;SDS011;2540;50.928;6.856;2024-02-26T11:41:02;2.30;;;1.80;;
5042;SDS011;2540;50.928;6.856;2024-02-26T11:46:24;2.67;;;2.23;;
5042;SDS011;2540;50.928;6.856;2024-02-26T11:48:56;3.80;;;2.47;;
5042;SDS011;2540;50.928;6.856;2024-02-26T11:51:41;3.40;;;2.47;;
5042;SDS011;2540;50.928;6.856;2024-02-26T11:54:07;3.10;;;2.13;;
5042;SDS011;2540;50.928;6.856;2024-02-26T11:56:33;6.20;;;1.63;;
5042;SDS011;2540;50.928;6.856;2024-02-26T12:04:06;3.40;;;1.83;;
5042;SDS011;2540;50.928;6.856;2024-02-26T12:06:41;3.33;;;2.00;;
5042;SDS011;2540;50.928;6.856;2024-02-26T12:09:07;2.03;;;1.67;;
5042;SDS011;2540;50.928;6.856;2024-02-26T12:11:33;2.50;;;2.00;;
5042;SDS011;2540;50.928;6.856;2024-02-26T12:14:03;2.37;;;2.17;;
5042;SDS011;2540;50.928;6.856;2024-02-26T12:16:35;3.47;;;2.40;;
5042;SDS011;2540;50.928;6.856;2024-02-26T12:19:02;8.20;;;1.77;;
5042;SDS011;2540;50.928;6.856;2024-02-26T12:21:29;3.37;;;2.10;;
5042;SDS011;2540;50.928;6.856;2024-02-26T12:24:10;9.67;;;4.20;;
5042;SDS011;2540;50.928;6.856;2024-02-26T12:26:37;15.20;;;5.10;;
5042;SDS011;2540;50.928;6.856;2024-02-26T12:29:02;5.20;;;3.43;;
5042;SDS011;2540;50.928;6.856;2024-02-26T12:31:27;8.77;;;5.10;;
5042;SDS011;2540;50.928;6.856;2024-02-26T12:33:54;3.83;;;2.67;;
5042;SDS011;2540;50.928;6.856;2024-02-26T12:36:20;5.23;;;3.03;;
5042;SDS011;2540;50.928;6.856;2024-02-26T12:38:46;12.50;;;6.30;;
5042;SDS011;2540;50.928;6.856;2024-02-26T12:41:11;22.20;;;11.60;;
5042;SDS011;2540;50.928;6.856;2024-02-26T12:43:36;5.87;;;3.80;;
5042;SDS011;2540;50.928;6.856;2024-02-26T12:46:03;3.50;;;2.57;;
5042;SDS011;2540;50.928;6.856;2024-02-26T12:48:28;4.07;;;3.10;;
5042;SDS011;2540;50.928;6.856;2024-02-26T12:50:54;7.33;;;4.00;;
5042;SDS011;2540;50.928;6.856;2024-02-26T12:53:20;6.77;;;3.10;;
5042;SDS011;2540;50.928;6.856;2024-02-26T12:55:45;5.67;;;3.10;;
5042;SDS011;2540;50.928;6.856;2024-02-26T12:58:11;5.20;;;3.20;;
5042;SDS011;2540;50.928;6.856;2024-02-26T13:00:36;14.60;;;7.20;;
5042;SDS011;2540;50.928;6.856;2024-02-26T13:03:02;7.70;;;4.20;;
5042;SDS011;2540;50.928;6.856;2024-02-26T13:05:27;5.00;;;2.87;;
5042;SDS011;2540;50.928;6.856;2024-02-26T13:07:52;4.57;;;2.67;;
5042;SDS011;2540;50.928;6.856;2024-02-26T13:10:18;6.00;;;3.07;;
5042;SDS011;2540;50.928;6.856;2024-02-26T13:12:45;7.07;;;4.00;;
5042;SDS011;2540;50.928;6.856;2024-02-26T13:15:15;7.80;;;3.07;;
5042;SDS011;2540;50.928;6.856;2024-02-26T13:17:44;4.10;;;2.90;;
5042;SDS011;2540;50.928;6.856;2024-02-26T13:20:10;4.00;;;2.67;;
5042;SDS011;2540;50.928;6.856;2024-02-26T13:22:36;5.53;;;3.70;;
5042;SDS011;2540;50.928;6.856;2024-02-26T13:25:02;10.80;;;5.40;;
5042;SDS011;2540;50.928;6.856;2024-02-26T13:27:28;16.33;;;5.73;;
5042;SDS011;2540;50.928;6.856;2024-02-26T13:32:36;6.83;;;4.20;;
5042;SDS011;2540;50.928;6.856;2024-02-26T13:35:11;8.63;;;4.80;;
5042;SDS011;2540;50.928;6.856;2024-02-26T13:37:38;6.90;;;3.77;;
5042;SDS011;2540;50.928;6.856;2024-02-26T13:40:07;13.67;;;4.87;;
5042;SDS011;2540;50.928;6.856;2024-02-26T13:42:34;5.07;;;2.90;;
5042;SDS011;2540;50.928;6.856;2024-02-26T13:44:59;7.77;;;3.37;;
5042;SDS011;2540;50.928;6.856;2024-02-26T13:47:25;7.27;;;3.00;;
5042;SDS011;2540;50.928;6.856;2024-02-26T13:49:50;6.00;;;4.10;;
5042;SDS011;2540;50.928;6.856;2024-02-26T13:52:15;5.47;;;3.50;;
5042;SDS011;2540;50.928;6.856;2024-02-26T13:54:40;5.27;;;3.23;;
5042;SDS011;2540;50.928;6.856;2024-02-26T13:57:06;7.50;;;4.10;;
5042;SDS011;2540;50.928;6.856;2024-02-26T13:59:32;5.63;;;3.53;;
5042;SDS011;2540;50.928;6.856;2024-02-26T14:01:57;6.07;;;3.50;;
5042;SDS011;2540;50.928;6.856;2024-02-26T14:04:22;10.20;;;3.67;;
5042;SDS011;2540;50.928;6.856;2024-02-26T14:06:47;8.00;;;4.33;;
5042;SDS011;2540;50.928;6.856;2024-02-26T14:09:13;7.07;;;4.27;;
5042;SDS011;2540;50.928;6.856;2024-02-26T14:11:43;6.33;;;4.17;;
5042;SDS011;2540;50.928;6.856;2024-02-26T14:14:09;7.20;;;4.00;;
5042;SDS011;2540;50.928;6.856;2024-02-26T14:16:35;3.83;;;3.40;;
5042;SDS011;2540;50.928;6.856;2024-02-26T14:19:01;4.40;;;3.40;;
5042;SDS011;2540;50.928;6.856;2024-02-26T14:21:27;11.80;;;3.80;;
5042;SDS011;2540;50.928;6.856;2024-02-26T14:23:52;9.97;;;4.20;;
5042;SDS011;2540;50.928;6.856;2024-02-26T14:26:17;8.10;;;4.17;;
5042;SDS011;2540;50.928;6.856;2024-02-26T14:28:43;5.80;;;3.33;;
5042;SDS011;2540;50.928;6.856;2024-02-26T14:31:08;4.23;;;3.10;;
5042;SDS011;2540;50.928;6.856;2024-02-26T14:33:37;6.50;;;3.80;;
5042;SDS011;2540;50.928;6.856;2024-02-26T14:36:03;6.57;;;3.60;;
5042;SDS011;2540;50.928;6.856;2024-02-26T14:38:29;11.73;;;4.23;;
5042;SDS011;2540;50.928;6.856;2024-02-26T14:40:54;7.47;;;4.00;;
5042;SDS011;2540;50.928;6.856;2024-02-26T14:43:19;10.37;;;5.20;;
5042;SDS011;2540;50.928;6.856;2024-02-26T14:45:45;8.47;;;4.57;;
5042;SDS011;2540;50.928;6.856;2024-02-26T14:48:10;12.57;;;4.70;;
5042;SDS011;2540;50.928;6.856;2024-02-26T14:50:36;10.17;;;4.00;;
5042;SDS011;2540;50.928;6.856;2024-02-26T14:53:01;7.40;;;4.80;;
5042;SDS011;2540;50.928;6.856;2024-02-26T14:55:27;14.63;;;5.00;;
5042;SDS011;2540;50.928;6.856;2024-02-26T14:57:52;7.83;;;4.87;;
5042;SDS011;2540;50.928;6.856;2024-02-26T15:00:18;8.87;;;5.20;;
5042;SDS011;2540;50.928;6.856;2024-02-26T15:02:43;13.03;;;6.40;;
5042;SDS011;2540;50.928;6.856;2024-02-26T15:05:09;12.77;;;5.73;;
5042;SDS011;2540;50.928;6.856;2024-02-26T15:07:36;8.27;;;4.97;;
5042;SDS011;2540;50.928;6.856;2024-02-26T15:10:04;9.83;;;5.23;;
5042;SDS011;2540;50.928;6.856;2024-02-26T15:12:31;15.00;;;7.83;;
5042;SDS011;2540;50.928;6.856;2024-02-26T15:14:56;18.03;;;8.03;;
5042;SDS011;2540;50.928;6.856;2024-02-26T15:17:22;14.33;;;6.83;;
5042;SDS011;2540;50.928;6.856;2024-02-26T15:19:47;9.50;;;6.00;;
5042;SDS011;2540;50.928;6.856;2024-02-26T15:22:22;16.53;;;5.77;;